• Join FlightAware (Why Join?)
  • Login
  • US Flag 
06:09PM EST


 

Airport Tracker/Info


-or-


 

Live Flight TrackerFlight Track Log ✈ N63TV ✈ 07-Feb-2014 ✈ KSWF - KRUT

Flight Track Log - Related Links

Times and Time Zones

All times are in EST time to prevent confusion due to time zone crossing. See the N63TV flight status page for this flight to view local times or setup timezone preferences in your user account.

Time Position Orientation Groundspeed Altitude Reporting Facility
EST Latitude Longitude Course Direction KTS MPH feet Rate Location/Type
12:20PM 41.4158 -73.9450 22° Northeast 145 167 5,500  Level Boston Center
12:21PM 41.4550 -73.9219 24° Northeast 143 165 5,400  Descending Boston Center
12:22PM 41.5000 -73.9000 20° North 126 145 5,500  Climbing New York TRACON
12:23PM 41.5333 -73.8833 21° North 142 163 5,500  Level New York TRACON
12:24PM 41.5667 -73.8667 21° North 125 144 5,600  Climbing New York TRACON
12:25PM 41.6000 -73.8500 21° North 132 152 5,500 -60 Descending New York TRACON
12:26PM 41.7014 -73.9886 22° Northeast  Level FlightAware Approximate
12:26PM 41.6317 -73.8272 28° Northeast 135 155 5,500  Level Boston Center
12:27PM 41.6583 -73.8147 19° North 132 152 5,500  Level Boston Center
12:29PM 41.6994 -73.7953 19° North 127 146 5,500  Level Boston Center
12:30PM 41.7400 -73.7781 18° North 126 145 5,600  Climbing Boston Center
12:31PM 41.7731 -73.7822 355° North 120 138 5,500  Descending Boston Center
12:32PM 41.8125 -73.7753 North 142 163 5,600  Climbing Boston Center
12:33PM 41.8467 -73.7414 36° Northeast 153 176 5,500 -60 Descending Boston Center
12:34PM 41.8817 -73.7222 22° Northeast 134 154 5,500  Level Boston Center
12:34PM 41.9081 -73.7175 North 122 140 5,600 60 Climbing Boston Center
12:35PM 41.9169 -73.7158 North 129 148 5,600 -120 Level Boston Center
12:36PM 41.9564 -73.7047 12° North 135 155 5,500  Descending Boston Center
12:37PM 41.9908 -73.6875 20° North 139 160 5,600 60 Climbing Boston Center
12:37PM 41.9919 -73.6869 20° North 136 157 5,600 -120 Level Boston Center
12:38PM 42.0286 -73.6650 24° Northeast 145 167 5,500 -60 Descending Boston Center
12:39PM 42.0628 -73.6400 29° Northeast 141 162 5,500  Level Boston Center
12:40PM 42.0933 -73.6206 25° Northeast 140 161 5,500  Level Boston Center
12:40PM 42.0944 -73.6203 11° North 144 166 5,500 60 Level Boston Center
12:41PM 42.1286 -73.6036 20° North 136 157 5,600  Climbing Boston Center
12:41PM 42.1372 -73.6006 15° North 137 158 5,500 -120 Descending Boston Center
12:42PM 42.1756 -73.5886 13° North 139 160 5,500  Level Boston Center
12:43PM 42.2131 -73.5708 19° North 142 163 5,500  Level Boston Center
12:43PM 42.2119 -73.5706 170° South 144 166 5,500  Level Boston Center
12:44PM 42.2464 -73.5472 27° Northeast 144 166 5,500  Level Boston Center
12:44PM 42.2486 -73.5478 350° North 143 165 5,500  Level Boston Center
12:45PM 42.2817 -73.5417 North 138 159 5,500  Level Boston Center
12:45PM 42.2872 -73.5381 26° Northeast 140 161 5,500  Level Boston Center
12:46PM 42.3197 -73.5222 20° North 144 166 5,500  Level Boston Center
12:46PM 42.3250 -73.5200 17° North 142 163 5,500  Level Boston Center
12:47PM 42.3581 -73.5003 24° Northeast 151 174 5,500  Level Boston Center
12:47PM 42.3678 -73.4939 26° Northeast 148 170 5,500  Level Boston Center
12:48PM 42.3967 -73.4756 25° Northeast 146 168 5,500  Level Boston Center
12:48PM 42.4044 -73.4706 25° Northeast 147 169 5,500  Level Boston Center
12:49PM 42.4331 -73.4528 25° Northeast 143 165 5,500  Level Boston Center
12:49PM 42.4408 -73.4486 22° Northeast 144 166 5,500  Level Boston Center
12:50PM 42.4719 -73.4281 26° Northeast 143 165 5,500 60 Level Boston Center
12:50PM 42.4758 -73.4247 32° Northeast 142 163 5,600  Climbing Boston Center
12:51PM 42.5072 -73.4106 18° North 138 159 5,500 -120 Descending Boston Center
12:51PM 42.5153 -73.4069 18° North 140 161 5,500 60 Level Boston Center
12:52PM 42.5444 -73.3939 18° North 137 158 5,600 60 Climbing Boston Center
12:52PM 42.5514 -73.3919 12° North 136 157 5,600  Level Boston Center
12:53PM 42.5800 -73.3767 21° North 140 161 5,600 -120 Level Boston Center
12:53PM 42.5878 -73.3731 19° North 139 160 5,500 -120 Descending Boston Center
12:54PM 42.6247 -73.3603 14° North 137 158 5,500  Level Boston Center
12:55PM 42.6525 -73.3425 25° Northeast 139 160 5,600 60 Climbing Boston Center
12:55PM 42.6550 -73.3422 North 139 160 5,600  Level Boston Center
12:56PM 42.6908 -73.3203 24° Northeast 147 169 5,600 -120 Level Boston Center
12:56PM 42.7011 -73.3156 19° North 146 168 5,500 -120 Descending Boston Center
12:57PM 42.7325 -73.2903 31° Northeast 151 174 5,500  Level Boston Center
12:57PM 42.7372 -73.2875 23° Northeast 150 173 5,500  Level Boston Center
12:58PM 42.7658 -73.2606 35° Northeast 149 171 5,500 -120 Level Boston Center
12:58PM 42.7722 -73.2575 19° North 149 171 5,400  Descending Boston Center
12:59PM 42.7989 -73.2306 37° Northeast 145 167 5,500 60 Climbing Boston Center
12:59PM 42.8075 -73.2228 34° Northeast 148 170 5,500  Level Boston Center
01:00PM 42.8303 -73.2000 36° Northeast 149 171 5,500  Level Boston Center
01:00PM 42.8431 -73.1911 27° Northeast 151 174 5,500  Level Boston Center
01:01PM 42.8806 -73.1792 13° North 140 161 5,500  Level Boston Center
01:02PM 42.9189 -73.1594 21° North 146 168 5,600  Climbing Boston Center
01:03PM 42.9572 -73.1400 20° North 148 170 5,500  Descending Boston Center
01:04PM 42.9981 -73.1289 11° North 141 162 5,600 -60 Climbing Boston Center
01:05PM 43.0342 -73.1036 27° Northeast 147 169 5,400  Descending Boston Center
01:06PM 43.0656 -73.0775 31° Northeast 135 155 5,600 60 Climbing Boston Center
01:07PM 43.1014 -73.0547 25° Northeast 140 161 5,600 -120 Level Boston Center
01:08PM 43.1406 -73.0264 28° Northeast 147 169 5,400 -120 Descending Boston Center
01:10PM 43.1725 -73.0014 30° Northeast 144 166 5,400  Level Boston Center
01:11PM 43.2025 -72.9536 49° Northeast 140 161 5,400 -60 Level Boston Center
01:12PM 43.2289 -72.9078 52° Northeast 145 167 5,300 -120 Descending Boston Center